createdAt,value
2019-06-20T00:01:53.837Z,16.53
2019-06-20T00:13:00.395Z,16.26
2019-06-20T00:23:58.208Z,16.14
2019-06-20T00:34:59.920Z,16.04
2019-06-20T00:46:00.590Z,16.01
2019-06-20T00:57:02.566Z,15.85
2019-06-20T01:08:05.139Z,15.76
2019-06-20T01:19:04.481Z,15.63
2019-06-20T01:30:05.940Z,15.51
2019-06-20T01:41:08.694Z,15.51
2019-06-20T01:52:09.263Z,15.20
2019-06-20T02:03:11.609Z,15.31
2019-06-20T02:14:11.778Z,15.18
2019-06-20T02:25:10.962Z,15.03
2019-06-20T02:36:12.712Z,15.21
2019-06-20T02:47:08.085Z,14.94
2019-06-20T02:58:10.024Z,14.94
2019-06-20T03:09:12.044Z,15.01
2019-06-20T03:20:12.819Z,15.10
2019-06-20T03:31:14.736Z,14.93
2019-06-20T03:42:10.844Z,15.09
2019-06-20T03:53:07.354Z,15.08
2019-06-20T04:04:09.985Z,15.23
2019-06-20T04:15:19.002Z,15.41
2019-06-20T04:26:13.106Z,15.55
2019-06-20T04:37:14.365Z,15.83
2019-06-20T04:48:16.186Z,16.33
2019-06-20T04:59:19.725Z,16.53
2019-06-20T05:10:22.197Z,17.05
2019-06-20T05:21:23.696Z,17.25
2019-06-20T05:32:26.303Z,17.77
2019-06-20T05:43:22.067Z,18.14
2019-06-20T05:54:23.143Z,19.60
2019-06-20T06:05:26.994Z,19.72
2019-06-20T06:16:28.619Z,20.86
2019-06-20T06:27:28.413Z,21.14
2019-06-20T06:38:27.977Z,21.51
2019-06-20T06:49:29.639Z,22.01
2019-06-20T07:00:33.042Z,22.44
2019-06-20T07:11:36.640Z,23.35
2019-06-20T07:22:37.846Z,23.78
2019-06-20T07:33:41.082Z,24.37
2019-06-20T07:44:37.700Z,24.62
2019-06-20T07:55:38.934Z,24.94
2019-06-20T08:06:41.937Z,24.85
2019-06-20T08:17:42.847Z,25.74
2019-06-20T08:28:44.749Z,25.74
2019-06-20T08:39:47.074Z,26.34
2019-06-20T08:50:47.624Z,26.65
2019-06-20T09:01:47.795Z,27.16
2019-06-20T09:12:48.750Z,27.54
2019-06-20T09:23:49.526Z,27.58
2019-06-20T09:34:52.987Z,27.89
2019-06-20T09:45:49.745Z,28.09
2019-06-20T09:56:55.026Z,28.43
2019-06-20T10:07:58.497Z,28.47
2019-06-20T10:18:58.717Z,28.91
2019-06-20T10:30:13.487Z,29.23
2019-06-20T10:41:07.261Z,29.43
2019-06-20T10:52:06.090Z,29.85
2019-06-20T11:03:10.040Z,30.83
2019-06-20T11:14:10.503Z,29.96
2019-06-20T11:25:09.337Z,31.63
2019-06-20T11:36:11.693Z,30.97
2019-06-20T11:47:13.848Z,31.01
2019-06-20T11:58:13.537Z,29.93
2019-06-20T12:09:13.902Z,29.00
2019-06-20T12:20:12.522Z,29.00
2019-06-20T12:31:18.951Z,29.74
2019-06-20T12:42:18.589Z,33.42
2019-06-20T12:53:18.943Z,31.55
2019-06-20T13:04:21.137Z,32.43
2019-06-20T13:15:24.135Z,34.59
2019-06-20T13:26:22.931Z,31.63
2019-06-20T13:37:21.788Z,30.72
2019-06-20T13:48:19.465Z,29.68
2019-06-20T13:59:14.056Z,29.26
2019-06-20T14:10:15.985Z,29.85
2019-06-20T14:21:17.256Z,30.49
2019-06-20T14:32:22.378Z,28.83
2019-06-20T14:43:13.907Z,27.61
2019-06-20T14:54:19.725Z,29.28
2019-06-20T15:05:21.699Z,28.22
2019-06-20T15:16:18.880Z,26.82
2019-06-20T15:27:19.635Z,26.42
2019-06-20T15:38:20.472Z,26.04
2019-06-20T15:49:20.079Z,25.70
2019-06-20T16:00:20.995Z,24.97
2019-06-20T16:11:21.348Z,23.05
2019-06-20T16:22:20.404Z,23.70
2019-06-20T16:33:25.521Z,24.48
2019-06-20T16:44:26.005Z,24.47
2019-06-20T16:55:25.937Z,24.02
2019-06-20T17:06:26.231Z,24.00
2019-06-20T17:17:24.421Z,23.48
2019-06-20T17:28:26.147Z,23.18
2019-06-20T17:39:28.309Z,23.20
2019-06-20T17:50:28.378Z,23.53
2019-06-20T18:01:30.383Z,23.17
2019-06-20T18:12:26.260Z,22.90
2019-06-20T18:23:25.658Z,22.53
2019-06-20T18:34:30.029Z,22.50
2019-06-20T18:45:29.404Z,22.10
2019-06-20T18:56:28.366Z,21.79
2019-06-20T19:07:31.124Z,21.70
2019-06-20T19:18:29.915Z,21.49
2019-06-20T19:29:31.717Z,21.02
2019-06-20T19:40:32.208Z,20.91
2019-06-20T19:51:32.397Z,20.98
2019-06-20T20:02:34.942Z,21.16
2019-06-20T20:13:36.024Z,21.17
2019-06-20T20:24:36.897Z,21.26
2019-06-20T20:35:36.509Z,21.17
2019-06-20T20:46:36.055Z,21.35
2019-06-20T20:57:32.059Z,22.10
2019-06-20T21:08:33.848Z,22.42
2019-06-20T21:19:34.383Z,22.46
2019-06-20T21:30:35.700Z,22.32
2019-06-20T21:41:37.351Z,22.59
2019-06-20T21:52:37.987Z,22.46
2019-06-20T22:03:39.973Z,22.47
2019-06-20T22:14:41.002Z,22.13
2019-06-20T22:25:39.737Z,21.54
2019-06-20T22:36:40.752Z,21.36
2019-06-20T22:47:39.964Z,21.27
2019-06-20T22:58:39.615Z,21.26
2019-06-20T23:09:41.595Z,20.43
2019-06-20T23:20:40.292Z,19.86
2019-06-20T23:31:41.581Z,19.54
2019-06-20T23:42:41.087Z,19.11
2019-06-20T23:53:40.467Z,18.86
